sensor_id;sensor_type;location;lat;lon;timestamp;P1;durP1;ratioP1;P2;durP2;ratioP2
19278;SDS011;9773;47.062;15.446;2023-06-22T00:01:17;10.40;;;7.10;;
19278;SDS011;9773;47.062;15.446;2023-06-22T00:03:43;9.23;;;6.20;;
19278;SDS011;9773;47.062;15.446;2023-06-22T00:06:09;11.90;;;6.80;;
19278;SDS011;9773;47.062;15.446;2023-06-22T00:08:35;7.53;;;6.00;;
19278;SDS011;9773;47.062;15.446;2023-06-22T00:11:01;10.57;;;7.53;;
19278;SDS011;9773;47.062;15.446;2023-06-22T00:13:26;12.17;;;7.27;;
19278;SDS011;9773;47.062;15.446;2023-06-22T00:15:52;13.80;;;6.83;;
19278;SDS011;9773;47.062;15.446;2023-06-22T00:18:18;8.90;;;6.47;;
19278;SDS011;9773;47.062;15.446;2023-06-22T00:20:43;9.07;;;6.40;;
19278;SDS011;9773;47.062;15.446;2023-06-22T00:23:10;13.77;;;6.60;;
19278;SDS011;9773;47.062;15.446;2023-06-22T00:25:37;8.60;;;7.13;;
19278;SDS011;9773;47.062;15.446;2023-06-22T00:28:06;9.83;;;6.70;;
19278;SDS011;9773;47.062;15.446;2023-06-22T00:30:33;7.60;;;6.47;;
19278;SDS011;9773;47.062;15.446;2023-06-22T00:32:59;11.37;;;6.77;;
19278;SDS011;9773;47.062;15.446;2023-06-22T00:35:25;10.20;;;6.90;;
19278;SDS011;9773;47.062;15.446;2023-06-22T00:37:54;12.10;;;7.73;;
19278;SDS011;9773;47.062;15.446;2023-06-22T00:40:25;12.03;;;6.87;;
19278;SDS011;9773;47.062;15.446;2023-06-22T00:42:55;11.27;;;6.50;;
19278;SDS011;9773;47.062;15.446;2023-06-22T00:45:21;8.47;;;6.80;;
19278;SDS011;9773;47.062;15.446;2023-06-22T00:47:51;10.03;;;6.73;;
19278;SDS011;9773;47.062;15.446;2023-06-22T00:50:22;10.13;;;7.10;;
19278;SDS011;9773;47.062;15.446;2023-06-22T00:52:56;10.13;;;7.13;;
19278;SDS011;9773;47.062;15.446;2023-06-22T00:55:24;11.23;;;7.13;;
19278;SDS011;9773;47.062;15.446;2023-06-22T00:57:53;8.63;;;6.97;;
19278;SDS011;9773;47.062;15.446;2023-06-22T01:00:22;7.77;;;6.70;;
19278;SDS011;9773;47.062;15.446;2023-06-22T01:02:50;6.80;;;5.90;;
19278;SDS011;9773;47.062;15.446;2023-06-22T01:05:20;13.93;;;8.03;;
19278;SDS011;9773;47.062;15.446;2023-06-22T01:10:24;10.23;;;7.33;;
19278;SDS011;9773;47.062;15.446;2023-06-22T01:16:00;10.50;;;6.87;;
19278;SDS011;9773;47.062;15.446;2023-06-22T01:18:29;13.40;;;7.40;;
19278;SDS011;9773;47.062;15.446;2023-06-22T01:20:56;7.50;;;6.27;;
19278;SDS011;9773;47.062;15.446;2023-06-22T01:25:59;10.23;;;7.50;;
19278;SDS011;9773;47.062;15.446;2023-06-22T01:28:46;9.93;;;6.13;;
19278;SDS011;9773;47.062;15.446;2023-06-22T01:31:17;9.40;;;7.60;;
19278;SDS011;9773;47.062;15.446;2023-06-22T01:33:47;15.73;;;7.03;;
19278;SDS011;9773;47.062;15.446;2023-06-22T01:36:16;7.90;;;6.97;;
19278;SDS011;9773;47.062;15.446;2023-06-22T01:38:43;8.70;;;7.10;;
19278;SDS011;9773;47.062;15.446;2023-06-22T01:41:10;10.13;;;7.17;;
19278;SDS011;9773;47.062;15.446;2023-06-22T01:43:37;9.57;;;7.50;;
19278;SDS011;9773;47.062;15.446;2023-06-22T01:46:03;11.27;;;7.23;;
19278;SDS011;9773;47.062;15.446;2023-06-22T01:48:30;9.83;;;7.20;;
19278;SDS011;9773;47.062;15.446;2023-06-22T01:50:56;8.10;;;7.30;;
19278;SDS011;9773;47.062;15.446;2023-06-22T01:53:23;8.67;;;7.17;;
19278;SDS011;9773;47.062;15.446;2023-06-22T01:55:49;12.03;;;7.47;;
19278;SDS011;9773;47.062;15.446;2023-06-22T01:58:15;10.80;;;6.93;;
19278;SDS011;9773;47.062;15.446;2023-06-22T02:00:48;11.03;;;6.90;;
19278;SDS011;9773;47.062;15.446;2023-06-22T02:03:31;11.10;;;6.93;;
19278;SDS011;9773;47.062;15.446;2023-06-22T02:06:06;10.90;;;7.50;;
19278;SDS011;9773;47.062;15.446;2023-06-22T02:08:40;7.67;;;6.77;;
19278;SDS011;9773;47.062;15.446;2023-06-22T02:11:10;8.70;;;6.63;;
19278;SDS011;9773;47.062;15.446;2023-06-22T02:13:38;9.63;;;7.07;;
19278;SDS011;9773;47.062;15.446;2023-06-22T02:16:10;11.20;;;7.43;;
19278;SDS011;9773;47.062;15.446;2023-06-22T02:18:37;11.07;;;8.37;;
19278;SDS011;9773;47.062;15.446;2023-06-22T02:21:05;10.43;;;6.80;;
19278;SDS011;9773;47.062;15.446;2023-06-22T02:23:31;12.47;;;7.80;;
19278;SDS011;9773;47.062;15.446;2023-06-22T02:25:59;8.70;;;7.07;;
19278;SDS011;9773;47.062;15.446;2023-06-22T02:28:27;9.70;;;6.67;;
19278;SDS011;9773;47.062;15.446;2023-06-22T02:30:53;9.33;;;6.90;;
19278;SDS011;9773;47.062;15.446;2023-06-22T02:33:18;9.47;;;8.00;;
19278;SDS011;9773;47.062;15.446;2023-06-22T02:35:44;9.67;;;7.67;;
19278;SDS011;9773;47.062;15.446;2023-06-22T02:38:14;10.47;;;7.33;;
19278;SDS011;9773;47.062;15.446;2023-06-22T02:40:40;9.00;;;7.47;;
19278;SDS011;9773;47.062;15.446;2023-06-22T02:43:05;11.03;;;7.80;;
19278;SDS011;9773;47.062;15.446;2023-06-22T02:45:31;9.47;;;7.07;;
19278;SDS011;9773;47.062;15.446;2023-06-22T02:47:57;9.33;;;8.30;;
19278;SDS011;9773;47.062;15.446;2023-06-22T02:50:23;11.10;;;7.57;;
19278;SDS011;9773;47.062;15.446;2023-06-22T02:52:49;10.93;;;8.30;;
19278;SDS011;9773;47.062;15.446;2023-06-22T02:55:14;9.53;;;7.13;;
19278;SDS011;9773;47.062;15.446;2023-06-22T02:57:40;9.30;;;8.30;;
19278;SDS011;9773;47.062;15.446;2023-06-22T03:00:09;9.30;;;8.00;;
19278;SDS011;9773;47.062;15.446;2023-06-22T03:02:46;10.80;;;7.93;;
19278;SDS011;9773;47.062;15.446;2023-06-22T03:05:13;11.57;;;7.83;;
19278;SDS011;9773;47.062;15.446;2023-06-22T03:07:42;11.67;;;9.37;;
19278;SDS011;9773;47.062;15.446;2023-06-22T03:10:12;12.00;;;8.37;;
19278;SDS011;9773;47.062;15.446;2023-06-22T03:12:40;10.63;;;8.70;;
19278;SDS011;9773;47.062;15.446;2023-06-22T03:15:07;9.80;;;7.70;;
19278;SDS011;9773;47.062;15.446;2023-06-22T03:17:35;10.97;;;8.17;;
19278;SDS011;9773;47.062;15.446;2023-06-22T03:20:01;12.93;;;9.03;;
19278;SDS011;9773;47.062;15.446;2023-06-22T03:22:43;18.23;;;9.20;;
19278;SDS011;9773;47.062;15.446;2023-06-22T03:25:09;10.53;;;8.40;;
19278;SDS011;9773;47.062;15.446;2023-06-22T03:27:41;12.07;;;9.40;;
19278;SDS011;9773;47.062;15.446;2023-06-22T03:30:09;12.63;;;8.57;;
19278;SDS011;9773;47.062;15.446;2023-06-22T03:32:36;9.90;;;8.40;;
19278;SDS011;9773;47.062;15.446;2023-06-22T03:35:02;10.97;;;8.70;;
19278;SDS011;9773;47.062;15.446;2023-06-22T03:37:28;11.37;;;8.43;;
19278;SDS011;9773;47.062;15.446;2023-06-22T03:39:54;11.10;;;8.93;;
19278;SDS011;9773;47.062;15.446;2023-06-22T03:42:20;13.17;;;9.63;;
19278;SDS011;9773;47.062;15.446;2023-06-22T03:44:46;13.27;;;8.57;;
19278;SDS011;9773;47.062;15.446;2023-06-22T03:47:12;11.87;;;8.90;;
19278;SDS011;9773;47.062;15.446;2023-06-22T03:49:38;12.57;;;9.63;;
19278;SDS011;9773;47.062;15.446;2023-06-22T03:52:04;13.93;;;8.90;;
19278;SDS011;9773;47.062;15.446;2023-06-22T03:54:30;13.50;;;8.90;;
19278;SDS011;9773;47.062;15.446;2023-06-22T03:56:57;15.27;;;8.87;;
19278;SDS011;9773;47.062;15.446;2023-06-22T03:59:23;10.80;;;8.73;;
19278;SDS011;9773;47.062;15.446;2023-06-22T04:01:50;13.60;;;9.67;;
19278;SDS011;9773;47.062;15.446;2023-06-22T04:04:17;10.73;;;8.70;;
19278;SDS011;9773;47.062;15.446;2023-06-22T04:06:43;14.67;;;9.13;;
19278;SDS011;9773;47.062;15.446;2023-06-22T04:09:09;13.57;;;9.13;;
19278;SDS011;9773;47.062;15.446;2023-06-22T04:11:34;11.43;;;9.67;;
19278;SDS011;9773;47.062;15.446;2023-06-22T04:14:00;13.60;;;9.40;;
19278;SDS011;9773;47.062;15.446;2023-06-22T04:16:26;14.87;;;9.60;;
19278;SDS011;9773;47.062;15.446;2023-06-22T04:18:51;13.77;;;9.57;;
19278;SDS011;9773;47.062;15.446;2023-06-22T04:21:17;10.30;;;9.20;;
19278;SDS011;9773;47.062;15.446;2023-06-22T04:23:44;11.30;;;9.00;;
19278;SDS011;9773;47.062;15.446;2023-06-22T04:26:11;10.03;;;8.93;;
19278;SDS011;9773;47.062;15.446;2023-06-22T04:28:37;12.00;;;8.97;;
19278;SDS011;9773;47.062;15.446;2023-06-22T04:31:03;11.17;;;9.47;;
19278;SDS011;9773;47.062;15.446;2023-06-22T04:33:29;14.23;;;8.67;;
19278;SDS011;9773;47.062;15.446;2023-06-22T04:35:56;11.63;;;9.00;;
19278;SDS011;9773;47.062;15.446;2023-06-22T04:38:23;11.57;;;9.03;;
19278;SDS011;9773;47.062;15.446;2023-06-22T04:40:49;15.70;;;9.63;;
19278;SDS011;9773;47.062;15.446;2023-06-22T04:43:15;13.90;;;9.27;;
19278;SDS011;9773;47.062;15.446;2023-06-22T04:45:41;12.33;;;8.90;;
19278;SDS011;9773;47.062;15.446;2023-06-22T04:48:07;11.03;;;9.07;;
19278;SDS011;9773;47.062;15.446;2023-06-22T04:50:36;10.30;;;9.13;;
19278;SDS011;9773;47.062;15.446;2023-06-22T04:53:04;13.73;;;9.70;;
19278;SDS011;9773;47.062;15.446;2023-06-22T04:55:31;13.80;;;9.63;;
19278;SDS011;9773;47.062;15.446;2023-06-22T04:57:57;10.63;;;8.37;;
19278;SDS011;9773;47.062;15.446;2023-06-22T05:00:29;14.47;;;9.33;;
19278;SDS011;9773;47.062;15.446;2023-06-22T05:02:55;13.13;;;9.07;;
19278;SDS011;9773;47.062;15.446;2023-06-22T05:05:25;12.47;;;9.53;;
19278;SDS011;9773;47.062;15.446;2023-06-22T05:07:51;12.60;;;8.63;;
19278;SDS011;9773;47.062;15.446;2023-06-22T05:10:24;11.33;;;9.47;;
19278;SDS011;9773;47.062;15.446;2023-06-22T05:12:50;9.73;;;8.73;;
19278;SDS011;9773;47.062;15.446;2023-06-22T05:15:16;12.30;;;8.90;;
19278;SDS011;9773;47.062;15.446;2023-06-22T05:17:44;13.53;;;8.90;;
19278;SDS011;9773;47.062;15.446;2023-06-22T05:20:10;12.93;;;9.20;;
19278;SDS011;9773;47.062;15.446;2023-06-22T05:22:37;10.50;;;8.60;;
19278;SDS011;9773;47.062;15.446;2023-06-22T05:25:08;11.73;;;8.93;;
19278;SDS011;9773;47.062;15.446;2023-06-22T05:27:35;14.03;;;9.20;;
19278;SDS011;9773;47.062;15.446;2023-06-22T05:30:06;11.53;;;8.97;;
19278;SDS011;9773;47.062;15.446;2023-06-22T05:32:32;12.60;;;8.53;;
19278;SDS011;9773;47.062;15.446;2023-06-22T05:34:58;13.03;;;9.10;;
19278;SDS011;9773;47.062;15.446;2023-06-22T05:37:24;14.03;;;8.80;;
19278;SDS011;9773;47.062;15.446;2023-06-22T05:39:51;10.53;;;8.77;;
19278;SDS011;9773;47.062;15.446;2023-06-22T05:42:17;12.27;;;8.83;;
19278;SDS011;9773;47.062;15.446;2023-06-22T05:44:42;13.90;;;9.03;;
19278;SDS011;9773;47.062;15.446;2023-06-22T05:47:08;11.70;;;8.60;;
19278;SDS011;9773;47.062;15.446;2023-06-22T05:49:34;12.57;;;8.50;;
19278;SDS011;9773;47.062;15.446;2023-06-22T05:52:00;13.50;;;8.73;;
19278;SDS011;9773;47.062;15.446;2023-06-22T05:54:27;15.27;;;8.30;;
19278;SDS011;9773;47.062;15.446;2023-06-22T05:56:54;9.53;;;8.27;;
19278;SDS011;9773;47.062;15.446;2023-06-22T05:59:20;9.53;;;7.97;;
19278;SDS011;9773;47.062;15.446;2023-06-22T06:01:46;11.73;;;8.27;;
19278;SDS011;9773;47.062;15.446;2023-06-22T06:04:18;11.50;;;8.77;;
19278;SDS011;9773;47.062;15.446;2023-06-22T06:06:44;10.60;;;8.07;;
19278;SDS011;9773;47.062;15.446;2023-06-22T06:09:10;10.00;;;7.97;;
19278;SDS011;9773;47.062;15.446;2023-06-22T06:11:36;11.63;;;8.87;;
19278;SDS011;9773;47.062;15.446;2023-06-22T06:14:02;10.60;;;8.93;;
19278;SDS011;9773;47.062;15.446;2023-06-22T06:16:28;13.03;;;9.03;;
19278;SDS011;9773;47.062;15.446;2023-06-22T06:18:54;10.77;;;7.87;;
19278;SDS011;9773;47.062;15.446;2023-06-22T06:21:21;11.37;;;8.50;;
19278;SDS011;9773;47.062;15.446;2023-06-22T06:23:47;12.30;;;7.85;;
19278;SDS011;9773;47.062;15.446;2023-06-22T06:26:13;11.13;;;8.70;;
19278;SDS011;9773;47.062;15.446;2023-06-22T06:28:41;11.32;;;8.77;;
19278;SDS011;9773;47.062;15.446;2023-06-22T06:31:08;12.57;;;8.80;;
19278;SDS011;9773;47.062;15.446;2023-06-22T06:33:34;10.88;;;8.30;;
19278;SDS011;9773;47.062;15.446;2023-06-22T06:36:00;12.25;;;8.88;;
19278;SDS011;9773;47.062;15.446;2023-06-22T06:38:28;9.32;;;8.25;;
19278;SDS011;9773;47.062;15.446;2023-06-22T06:40:55;12.68;;;9.27;;
19278;SDS011;9773;47.062;15.446;2023-06-22T06:43:21;14.10;;;9.57;;
19278;SDS011;9773;47.062;15.446;2023-06-22T06:45:47;11.88;;;9.02;;
19278;SDS011;9773;47.062;15.446;2023-06-22T06:48:13;11.38;;;9.25;;
19278;SDS011;9773;47.062;15.446;2023-06-22T06:50:39;12.88;;;8.40;;
19278;SDS011;9773;47.062;15.446;2023-06-22T06:53:05;13.38;;;8.32;;
19278;SDS011;9773;47.062;15.446;2023-06-22T06:55:32;13.38;;;8.40;;
19278;SDS011;9773;47.062;15.446;2023-06-22T06:57:58;10.88;;;8.70;;
19278;SDS011;9773;47.062;15.446;2023-06-22T07:00:24;15.43;;;8.35;;
19278;SDS011;9773;47.062;15.446;2023-06-22T07:02:51;12.95;;;8.50;;
19278;SDS011;9773;47.062;15.446;2023-06-22T07:05:16;8.45;;;7.57;;
19278;SDS011;9773;47.062;15.446;2023-06-22T07:07:42;11.50;;;8.07;;
19278;SDS011;9773;47.062;15.446;2023-06-22T07:10:08;11.23;;;8.30;;
19278;SDS011;9773;47.062;15.446;2023-06-22T07:12:34;7.88;;;7.07;;
19278;SDS011;9773;47.062;15.446;2023-06-22T07:15:01;9.93;;;7.45;;
19278;SDS011;9773;47.062;15.446;2023-06-22T07:17:28;8.38;;;7.22;;
19278;SDS011;9773;47.062;15.446;2023-06-22T07:19:54;10.77;;;7.57;;
19278;SDS011;9773;47.062;15.446;2023-06-22T07:22:20;13.05;;;8.40;;
19278;SDS011;9773;47.062;15.446;2023-06-22T07:24:45;11.27;;;7.07;;
19278;SDS011;9773;47.062;15.446;2023-06-22T07:27:11;12.00;;;8.00;;
19278;SDS011;9773;47.062;15.446;2023-06-22T07:29:37;8.15;;;7.15;;
19278;SDS011;9773;47.062;15.446;2023-06-22T07:32:05;14.38;;;7.80;;
19278;SDS011;9773;47.062;15.446;2023-06-22T07:34:31;9.68;;;8.50;;
19278;SDS011;9773;47.062;15.446;2023-06-22T07:36:58;11.05;;;8.77;;
19278;SDS011;9773;47.062;15.446;2023-06-22T07:39:24;9.18;;;8.20;;
19278;SDS011;9773;47.062;15.446;2023-06-22T07:41:51;10.60;;;7.65;;
19278;SDS011;9773;47.062;15.446;2023-06-22T07:44:17;12.27;;;8.43;;
19278;SDS011;9773;47.062;15.446;2023-06-22T07:46:43;9.82;;;8.00;;
19278;SDS011;9773;47.062;15.446;2023-06-22T07:49:09;10.90;;;7.28;;
19278;SDS011;9773;47.062;15.446;2023-06-22T07:51:35;8.35;;;7.47;;
19278;SDS011;9773;47.062;15.446;2023-06-22T07:54:00;8.80;;;7.22;;
19278;SDS011;9773;47.062;15.446;2023-06-22T07:56:27;8.18;;;7.38;;
19278;SDS011;9773;47.062;15.446;2023-06-22T07:58:53;8.68;;;7.93;;
19278;SDS011;9773;47.062;15.446;2023-06-22T08:01:20;9.45;;;7.78;;
19278;SDS011;9773;47.062;15.446;2023-06-22T08:03:48;8.07;;;7.32;;
19278;SDS011;9773;47.062;15.446;2023-06-22T08:06:14;10.60;;;8.48;;
19278;SDS011;9773;47.062;15.446;2023-06-22T08:08:41;11.93;;;7.43;;
19278;SDS011;9773;47.062;15.446;2023-06-22T08:11:07;9.27;;;7.40;;
19278;SDS011;9773;47.062;15.446;2023-06-22T08:13:33;10.93;;;7.43;;
19278;SDS011;9773;47.062;15.446;2023-06-22T08:15:59;8.38;;;7.47;;
19278;SDS011;9773;47.062;15.446;2023-06-22T08:18:25;8.35;;;7.10;;
19278;SDS011;9773;47.062;15.446;2023-06-22T08:20:51;10.85;;;8.27;;
19278;SDS011;9773;47.062;15.446;2023-06-22T08:23:17;11.70;;;7.90;;
19278;SDS011;9773;47.062;15.446;2023-06-22T08:25:43;9.15;;;7.70;;
19278;SDS011;9773;47.062;15.446;2023-06-22T08:28:09;8.73;;;7.82;;
19278;SDS011;9773;47.062;15.446;2023-06-22T08:30:35;9.93;;;7.53;;
19278;SDS011;9773;47.062;15.446;2023-06-22T08:33:01;11.20;;;7.65;;
19278;SDS011;9773;47.062;15.446;2023-06-22T08:35:26;10.18;;;7.97;;
19278;SDS011;9773;47.062;15.446;2023-06-22T08:37:52;14.20;;;9.05;;
19278;SDS011;9773;47.062;15.446;2023-06-22T08:40:19;10.82;;;8.50;;
19278;SDS011;9773;47.062;15.446;2023-06-22T08:42:46;11.85;;;7.97;;
19278;SDS011;9773;47.062;15.446;2023-06-22T08:45:12;11.98;;;9.75;;
19278;SDS011;9773;47.062;15.446;2023-06-22T08:47:39;9.57;;;8.38;;
19278;SDS011;9773;47.062;15.446;2023-06-22T08:50:06;11.55;;;8.48;;
19278;SDS011;9773;47.062;15.446;2023-06-22T08:52:36;13.35;;;8.55;;
19278;SDS011;9773;47.062;15.446;2023-06-22T08:55:03;10.85;;;7.93;;
19278;SDS011;9773;47.062;15.446;2023-06-22T08:57:29;9.48;;;8.02;;
19278;SDS011;9773;47.062;15.446;2023-06-22T08:59:58;11.30;;;8.35;;
19278;SDS011;9773;47.062;15.446;2023-06-22T09:02:24;9.90;;;8.55;;
19278;SDS011;9773;47.062;15.446;2023-06-22T09:04:51;11.35;;;7.82;;
19278;SDS011;9773;47.062;15.446;2023-06-22T09:07:20;9.23;;;7.70;;
19278;SDS011;9773;47.062;15.446;2023-06-22T09:09:48;10.57;;;8.07;;
19278;SDS011;9773;47.062;15.446;2023-06-22T09:12:14;9.85;;;8.65;;
19278;SDS011;9773;47.062;15.446;2023-06-22T09:14:40;8.43;;;7.38;;
19278;SDS011;9773;47.062;15.446;2023-06-22T09:17:06;9.45;;;7.95;;
19278;SDS011;9773;47.062;15.446;2023-06-22T09:19:31;8.95;;;8.07;;
19278;SDS011;9773;47.062;15.446;2023-06-22T09:21:57;11.32;;;6.93;;
19278;SDS011;9773;47.062;15.446;2023-06-22T09:24:23;9.82;;;7.88;;
19278;SDS011;9773;47.062;15.446;2023-06-22T09:26:49;7.88;;;7.18;;
19278;SDS011;9773;47.062;15.446;2023-06-22T09:29:15;10.65;;;8.32;;
19278;SDS011;9773;47.062;15.446;2023-06-22T09:31:41;12.27;;;7.22;;
19278;SDS011;9773;47.062;15.446;2023-06-22T09:34:07;8.35;;;7.43;;
19278;SDS011;9773;47.062;15.446;2023-06-22T09:36:33;9.48;;;7.60;;
19278;SDS011;9773;47.062;15.446;2023-06-22T09:38:59;9.82;;;7.40;;
19278;SDS011;9773;47.062;15.446;2023-06-22T09:41:30;8.20;;;6.82;;
19278;SDS011;9773;47.062;15.446;2023-06-22T09:43:56;9.60;;;7.85;;
19278;SDS011;9773;47.062;15.446;2023-06-22T09:46:22;9.35;;;7.65;;
19278;SDS011;9773;47.062;15.446;2023-06-22T09:48:50;9.20;;;7.43;;
19278;SDS011;9773;47.062;15.446;2023-06-22T09:51:16;8.05;;;7.30;;
19278;SDS011;9773;47.062;15.446;2023-06-22T09:53:41;8.82;;;7.82;;
19278;SDS011;9773;47.062;15.446;2023-06-22T09:56:07;8.02;;;7.22;;
19278;SDS011;9773;47.062;15.446;2023-06-22T09:58:39;10.50;;;8.00;;
19278;SDS011;9773;47.062;15.446;2023-06-22T10:01:09;10.65;;;7.57;;
19278;SDS011;9773;47.062;15.446;2023-06-22T10:03:35;8.30;;;7.50;;
19278;SDS011;9773;47.062;15.446;2023-06-22T10:06:02;10.02;;;7.90;;
19278;SDS011;9773;47.062;15.446;2023-06-22T10:08:28;11.18;;;7.53;;
19278;SDS011;9773;47.062;15.446;2023-06-22T10:10:53;9.38;;;7.70;;
19278;SDS011;9773;47.062;15.446;2023-06-22T10:13:19;10.95;;;7.93;;
19278;SDS011;9773;47.062;15.446;2023-06-22T10:15:45;8.93;;;8.00;;
19278;SDS011;9773;47.062;15.446;2023-06-22T10:18:17;9.05;;;7.63;;
19278;SDS011;9773;47.062;15.446;2023-06-22T10:20:43;10.38;;;7.90;;
19278;SDS011;9773;47.062;15.446;2023-06-22T10:23:15;8.57;;;7.32;;
19278;SDS011;9773;47.062;15.446;2023-06-22T10:25:41;10.13;;;7.50;;
19278;SDS011;9773;47.062;15.446;2023-06-22T10:28:06;10.43;;;7.20;;
19278;SDS011;9773;47.062;15.446;2023-06-22T10:30:32;10.52;;;7.65;;
19278;SDS011;9773;47.062;15.446;2023-06-22T10:32:58;8.98;;;8.07;;
19278;SDS011;9773;47.062;15.446;2023-06-22T10:35:23;15.05;;;7.80;;
19278;SDS011;9773;47.062;15.446;2023-06-22T10:37:49;10.45;;;7.68;;
19278;SDS011;9773;47.062;15.446;2023-06-22T10:40:16;9.30;;;7.60;;
19278;SDS011;9773;47.062;15.446;2023-06-22T10:42:43;11.13;;;7.40;;
19278;SDS011;9773;47.062;15.446;2023-06-22T10:45:10;9.55;;;7.63;;
19278;SDS011;9773;47.062;15.446;2023-06-22T10:47:35;8.82;;;7.05;;
19278;SDS011;9773;47.062;15.446;2023-06-22T10:50:02;11.43;;;7.60;;
19278;SDS011;9773;47.062;15.446;2023-06-22T10:52:28;8.85;;;7.70;;
19278;SDS011;9773;47.062;15.446;2023-06-22T10:54:54;10.85;;;7.20;;
19278;SDS011;9773;47.062;15.446;2023-06-22T10:57:21;9.77;;;7.88;;
19278;SDS011;9773;47.062;15.446;2023-06-22T10:59:47;9.05;;;7.78;;
19278;SDS011;9773;47.062;15.446;2023-06-22T11:02:12;11.88;;;8.18;;
19278;SDS011;9773;47.062;15.446;2023-06-22T11:04:38;9.98;;;8.98;;
19278;SDS011;9773;47.062;15.446;2023-06-22T11:07:04;12.98;;;7.90;;
19278;SDS011;9773;47.062;15.446;2023-06-22T11:09:30;11.73;;;7.63;;
19278;SDS011;9773;47.062;15.446;2023-06-22T11:11:56;8.90;;;7.28;;
19278;SDS011;9773;47.062;15.446;2023-06-22T11:14:24;9.20;;;7.72;;
19278;SDS011;9773;47.062;15.446;2023-06-22T11:16:50;12.27;;;8.10;;
19278;SDS011;9773;47.062;15.446;2023-06-22T11:19:16;9.35;;;8.38;;
19278;SDS011;9773;47.062;15.446;2023-06-22T11:21:42;9.18;;;8.18;;
19278;SDS011;9773;47.062;15.446;2023-06-22T11:24:08;11.25;;;7.88;;
19278;SDS011;9773;47.062;15.446;2023-06-22T11:26:34;9.60;;;8.45;;
19278;SDS011;9773;47.062;15.446;2023-06-22T11:29:00;10.98;;;8.43;;
19278;SDS011;9773;47.062;15.446;2023-06-22T11:31:26;13.77;;;9.00;;
19278;SDS011;9773;47.062;15.446;2023-06-22T11:33:51;10.20;;;8.25;;
19278;SDS011;9773;47.062;15.446;2023-06-22T11:36:17;13.75;;;8.40;;
19278;SDS011;9773;47.062;15.446;2023-06-22T11:38:44;9.43;;;8.10;;
19278;SDS011;9773;47.062;15.446;2023-06-22T11:41:09;10.07;;;8.13;;
19278;SDS011;9773;47.062;15.446;2023-06-22T11:43:36;12.35;;;8.05;;
19278;SDS011;9773;47.062;15.446;2023-06-22T11:46:02;9.20;;;8.40;;
19278;SDS011;9773;47.062;15.446;2023-06-22T11:48:29;9.02;;;7.97;;
19278;SDS011;9773;47.062;15.446;2023-06-22T11:50:55;10.52;;;8.45;;
19278;SDS011;9773;47.062;15.446;2023-06-22T11:53:21;11.93;;;8.02;;
19278;SDS011;9773;47.062;15.446;2023-06-22T11:55:49;10.90;;;7.55;;
19278;SDS011;9773;47.062;15.446;2023-06-22T11:58:15;11.65;;;8.57;;
19278;SDS011;9773;47.062;15.446;2023-06-22T12:00:40;9.55;;;8.23;;
19278;SDS011;9773;47.062;15.446;2023-06-22T12:03:07;12.23;;;7.97;;
19278;SDS011;9773;47.062;15.446;2023-06-22T12:05:33;8.98;;;8.07;;
19278;SDS011;9773;47.062;15.446;2023-06-22T12:07:58;13.40;;;8.55;;
19278;SDS011;9773;47.062;15.446;2023-06-22T12:10:27;9.23;;;8.25;;
19278;SDS011;9773;47.062;15.446;2023-06-22T12:12:56;12.20;;;7.55;;
19278;SDS011;9773;47.062;15.446;2023-06-22T12:15:25;10.93;;;8.18;;
19278;SDS011;9773;47.062;15.446;2023-06-22T12:17:51;10.57;;;8.60;;
19278;SDS011;9773;47.062;15.446;2023-06-22T12:20:17;9.15;;;8.15;;
19278;SDS011;9773;47.062;15.446;2023-06-22T12:22:43;15.35;;;10.05;;
19278;SDS011;9773;47.062;15.446;2023-06-22T12:25:09;11.00;;;8.93;;
19278;SDS011;9773;47.062;15.446;2023-06-22T12:27:36;11.48;;;8.82;;
19278;SDS011;9773;47.062;15.446;2023-06-22T12:30:02;12.77;;;8.73;;
19278;SDS011;9773;47.062;15.446;2023-06-22T12:32:29;14.80;;;9.85;;
19278;SDS011;9773;47.062;15.446;2023-06-22T12:34:55;10.23;;;8.57;;
19278;SDS011;9773;47.062;15.446;2023-06-22T12:37:21;11.85;;;7.88;;
19278;SDS011;9773;47.062;15.446;2023-06-22T12:39:47;11.43;;;7.82;;
19278;SDS011;9773;47.062;15.446;2023-06-22T12:42:13;11.13;;;8.45;;
19278;SDS011;9773;47.062;15.446;2023-06-22T12:44:39;13.57;;;9.02;;
19278;SDS011;9773;47.062;15.446;2023-06-22T12:47:06;10.07;;;8.80;;
19278;SDS011;9773;47.062;15.446;2023-06-22T12:49:33;11.00;;;8.63;;
19278;SDS011;9773;47.062;15.446;2023-06-22T12:52:00;9.63;;;8.60;;
19278;SDS011;9773;47.062;15.446;2023-06-22T12:54:26;11.60;;;8.13;;
19278;SDS011;9773;47.062;15.446;2023-06-22T12:56:53;9.35;;;8.30;;
19278;SDS011;9773;47.062;15.446;2023-06-22T12:59:19;14.25;;;8.30;;
19278;SDS011;9773;47.062;15.446;2023-06-22T13:01:44;9.52;;;7.55;;
19278;SDS011;9773;47.062;15.446;2023-06-22T13:04:11;12.60;;;8.50;;
19278;SDS011;9773;47.062;15.446;2023-06-22T13:06:40;10.07;;;7.88;;
19278;SDS011;9773;47.062;15.446;2023-06-22T13:09:14;10.57;;;8.43;;
19278;SDS011;9773;47.062;15.446;2023-06-22T13:11:41;10.95;;;8.20;;
19278;SDS011;9773;47.062;15.446;2023-06-22T13:14:07;9.90;;;8.25;;
19278;SDS011;9773;47.062;15.446;2023-06-22T13:16:33;10.90;;;8.15;;
19278;SDS011;9773;47.062;15.446;2023-06-22T13:18:59;10.45;;;8.13;;
19278;SDS011;9773;47.062;15.446;2023-06-22T13:21:25;9.73;;;8.02;;
19278;SDS011;9773;47.062;15.446;2023-06-22T13:23:51;10.02;;;7.53;;
19278;SDS011;9773;47.062;15.446;2023-06-22T13:26:17;13.27;;;8.52;;
19278;SDS011;9773;47.062;15.446;2023-06-22T13:28:42;12.93;;;8.27;;
19278;SDS011;9773;47.062;15.446;2023-06-22T13:31:08;10.07;;;8.55;;
19278;SDS011;9773;47.062;15.446;2023-06-22T13:33:34;12.13;;;8.73;;
19278;SDS011;9773;47.062;15.446;2023-06-22T13:36:00;14.60;;;8.77;;
19278;SDS011;9773;47.062;15.446;2023-06-22T13:38:25;12.18;;;8.50;;
19278;SDS011;9773;47.062;15.446;2023-06-22T13:40:52;10.48;;;8.43;;
19278;SDS011;9773;47.062;15.446;2023-06-22T13:43:18;11.88;;;8.48;;
19278;SDS011;9773;47.062;15.446;2023-06-22T13:45:44;13.00;;;9.27;;
19278;SDS011;9773;47.062;15.446;2023-06-22T13:48:09;11.25;;;8.30;;
19278;SDS011;9773;47.062;15.446;2023-06-22T13:50:35;13.32;;;9.00;;
19278;SDS011;9773;47.062;15.446;2023-06-22T13:53:01;11.00;;;8.10;;
19278;SDS011;9773;47.062;15.446;2023-06-22T13:55:27;12.32;;;8.48;;
19278;SDS011;9773;47.062;15.446;2023-06-22T13:57:52;11.43;;;8.20;;
19278;SDS011;9773;47.062;15.446;2023-06-22T14:00:18;11.30;;;8.77;;
19278;SDS011;9773;47.062;15.446;2023-06-22T14:02:44;13.05;;;8.38;;
19278;SDS011;9773;47.062;15.446;2023-06-22T14:05:10;11.75;;;8.68;;
19278;SDS011;9773;47.062;15.446;2023-06-22T14:07:36;11.18;;;8.57;;
19278;SDS011;9773;47.062;15.446;2023-06-22T14:10:02;13.40;;;8.93;;
19278;SDS011;9773;47.062;15.446;2023-06-22T14:12:29;11.52;;;8.98;;
19278;SDS011;9773;47.062;15.446;2023-06-22T14:14:55;13.85;;;8.85;;
19278;SDS011;9773;47.062;15.446;2023-06-22T14:17:20;12.43;;;8.85;;
19278;SDS011;9773;47.062;15.446;2023-06-22T14:19:50;9.32;;;8.43;;
19278;SDS011;9773;47.062;15.446;2023-06-22T14:22:20;9.57;;;8.55;;
19278;SDS011;9773;47.062;15.446;2023-06-22T14:24:47;10.75;;;9.25;;
19278;SDS011;9773;47.062;15.446;2023-06-22T14:27:13;13.65;;;9.15;;
19278;SDS011;9773;47.062;15.446;2023-06-22T14:29:39;9.93;;;8.93;;
19278;SDS011;9773;47.062;15.446;2023-06-22T14:32:05;9.18;;;8.27;;
19278;SDS011;9773;47.062;15.446;2023-06-22T14:34:32;10.25;;;8.70;;
19278;SDS011;9773;47.062;15.446;2023-06-22T14:37:01;13.27;;;9.25;;
19278;SDS011;9773;47.062;15.446;2023-06-22T14:39:27;13.88;;;8.95;;
19278;SDS011;9773;47.062;15.446;2023-06-22T14:41:53;12.63;;;8.95;;
19278;SDS011;9773;47.062;15.446;2023-06-22T14:44:18;10.43;;;8.68;;